Time;durP1;ratioP1;P1;durP2;ratioP2;P2;SDS_P1;SDS_P2;PMS_P1;PMS_P2;Temp;Humidity;BMP_temperature;BMP_pressure;BME280_temperature;BME280_humidity;BME280_pressure;Samples;Min_cycle;Max_cycle;Signal;HPM_P1;HPM_P2
2023/02/04 00:00:49;;;;;;;6.82;1.50;;;;;;;5.53;100.00;101727.16;5138404;28;20093;-78
2023/02/04 00:03:19;;;;;;;4.05;0.80;;;;;;;5.27;100.00;101752.13;5138133;28;20109;-77
2023/02/04 00:05:49;;;;;;;4.15;0.90;;;;;;;5.17;100.00;101744.31;5138571;28;20039;-75
2023/02/04 00:08:20;;;;;;;4.00;0.60;;;;;;;4.98;100.00;101758.03;5139265;28;20093;-78
2023/02/04 00:10:50;;;;;;;3.65;0.90;;;;;;;4.92;100.00;101758.84;5138850;28;20448;-77
2023/02/04 00:13:20;;;;;;;2.72;0.77;;;;;;;4.95;100.00;101769.22;5138439;28;20528;-77
2023/02/04 00:15:50;;;;;;;2.30;0.80;;;;;;;4.83;100.00;101795.03;5138359;28;20027;-78
2023/02/04 00:18:21;;;;;;;6.28;1.02;;;;;;;4.91;100.00;101785.59;5139014;28;20057;-77
2023/02/04 00:20:51;;;;;;;2.03;0.77;;;;;;;4.90;100.00;101793.34;5138422;28;20041;-77
2023/02/04 00:23:21;;;;;;;1.25;0.60;;;;;;;4.85;100.00;101795.94;5143526;28;20034;-76
2023/02/04 00:25:52;;;;;;;3.47;0.63;;;;;;;4.88;100.00;101819.25;5145295;28;20030;-77
2023/02/04 00:28:22;;;;;;;2.38;0.55;;;;;;;4.85;100.00;101815.78;5141440;28;20038;-76
2023/02/04 00:30:52;;;;;;;5.05;0.70;;;;;;;4.81;100.00;101826.97;5144102;28;20027;-76
2023/02/04 00:33:23;;;;;;;2.13;0.60;;;;;;;4.74;100.00;101828.66;5142558;28;20089;-76
2023/02/04 00:35:53;;;;;;;2.05;0.60;;;;;;;4.76;100.00;101831.22;5146947;28;20058;-76
2023/02/04 00:38:23;;;;;;;1.15;0.50;;;;;;;4.71;100.00;101838.09;5143651;28;20031;-75
2023/02/04 00:40:54;;;;;;;1.90;0.75;;;;;;;4.73;100.00;101842.44;5144322;28;20475;-76
2023/02/04 00:43:24;;;;;;;10.70;0.90;;;;;;;4.72;100.00;101845.88;5143774;28;20031;-77
2023/02/04 00:45:54;;;;;;;1.92;0.60;;;;;;;4.74;100.00;101848.47;5145053;28;20038;-77
2023/02/04 00:48:24;;;;;;;2.90;0.70;;;;;;;4.59;100.00;101856.09;5141865;28;20019;-76
2023/02/04 00:50:55;;;;;;;3.33;1.05;;;;;;;4.62;100.00;101866.50;5125749;28;20441;-77
2023/02/04 00:53:25;;;;;;;3.65;0.70;;;;;;;4.56;100.00;101871.63;5142233;28;20085;-77
2023/02/04 00:55:55;;;;;;;2.20;0.82;;;;;;;4.57;100.00;101873.34;5142705;28;20042;-76
2023/02/04 00:58:26;;;;;;;2.03;0.60;;;;;;;4.50;100.00;101880.19;5143222;28;20033;-76
2023/02/04 01:00:56;;;;;;;3.80;0.85;;;;;;;4.55;100.00;101890.59;5144872;28;20031;-77
2023/02/04 01:03:26;;;;;;;2.30;0.80;;;;;;;4.64;100.00;101888.94;5143093;28;20496;-77
2023/02/04 01:05:56;;;;;;;6.32;0.90;;;;;;;4.70;100.00;101901.09;5142279;28;20039;-76
2023/02/04 01:08:27;;;;;;;2.28;0.70;;;;;;;4.51;100.00;101906.94;5143193;28;20480;-76
2023/02/04 01:10:58;;;;;;;4.13;0.90;;;;;;;4.54;100.00;101913.03;5142577;28;20400;-76
2023/02/04 01:13:28;;;;;;;3.47;0.70;;;;;;;4.63;100.00;101923.47;5141242;28;20338;-77
2023/02/04 01:15:58;;;;;;;3.50;0.95;;;;;;;4.58;100.00;101925.16;5142653;28;20489;-77
2023/02/04 01:18:29;;;;;;;3.03;0.80;;;;;;;4.59;100.00;101932.06;5143034;28;20118;-77
2023/02/04 01:20:59;;;;;;;3.85;0.60;;;;;;;4.50;100.00;101937.13;5143210;28;20019;-77
2023/02/04 01:23:29;;;;;;;3.30;0.77;;;;;;;4.46;100.00;101945.72;5142755;28;20046;-78
2023/02/04 01:25:59;;;;;;;2.33;0.80;;;;;;;4.48;100.00;101959.53;5143469;28;20077;-76
2023/02/04 01:28:30;;;;;;;2.28;0.50;;;;;;;4.42;100.00;101962.06;5143021;28;20027;-77
2023/02/04 01:31:00;;;;;;;2.47;0.60;;;;;;;4.35;100.00;101967.16;5142677;28;20331;-76
2023/02/04 01:33:31;;;;;;;1.15;0.50;;;;;;;4.41;100.00;101981.03;5141635;28;20046;-76
2023/02/04 01:36:01;;;;;;;1.88;0.65;;;;;;;4.34;100.00;101981.84;5144985;28;20082;-76
2023/02/04 01:38:32;;;;;;;1.05;0.47;;;;;;;4.41;100.00;101988.81;5142328;28;20392;-75
2023/02/04 01:41:03;;;;;;;5.72;0.93;;;;;;;4.36;100.00;101999.94;5141038;28;20031;-77
2023/02/04 01:43:34;;;;;;;1.73;0.60;;;;;;;4.36;100.00;102013.78;5141015;28;20098;-77
2023/02/04 01:46:04;;;;;;;1.15;0.50;;;;;;;4.35;100.00;102019.78;5143356;28;20058;-77
2023/02/04 01:48:35;;;;;;;1.67;0.52;;;;;;;4.29;100.00;102024.88;5140533;28;20030;-77
2023/02/04 01:51:09;;;;;;;3.58;0.82;;;;;;;4.18;100.00;102036.81;5141864;28;20492;-76
2023/02/04 01:53:40;;;;;;;1.15;0.57;;;;;;;4.16;100.00;102042.81;5144425;28;20018;-77
2023/02/04 01:56:19;;;;;;;2.25;0.60;;;;;;;4.20;100.00;102052.34;5132276;28;20027;-77
2023/02/04 02:01:34;;;;;;;3.58;0.70;;;;;;;4.18;100.00;102065.28;5198516;23;20423;-72
2023/02/04 02:04:04;;;;;;;1.80;0.60;;;;;;;4.12;100.00;102066.91;5179592;28;20457;-72
2023/02/04 02:06:36;;;;;;;0.90;0.55;;;;;;;4.05;100.00;102068.53;5176076;28;20104;-75
2023/02/04 02:09:07;;;;;;;2.35;0.60;;;;;;;3.91;100.00;102071.75;5180968;28;20025;-74
2023/02/04 02:11:37;;;;;;;3.30;0.70;;;;;;;4.01;100.00;102077.09;5180371;28;20029;-74
2023/02/04 02:14:07;;;;;;;2.75;0.65;;;;;;;3.86;100.00;102078.56;5180549;28;20728;-74
2023/02/04 02:16:38;;;;;;;2.63;0.80;;;;;;;3.76;100.00;102093.06;5179289;28;20032;-74
2023/02/04 02:19:13;;;;;;;1.10;0.47;;;;;;;3.88;100.00;102092.38;5178251;28;20038;-74
2023/02/04 02:22:09;;;;;;;4.03;0.80;;;;;;;3.75;100.00;102093.91;5181291;28;20112;-74
2023/02/04 02:24:40;;;;;;;1.60;0.70;;;;;;;3.72;100.00;102099.03;5176898;28;20513;-72
2023/02/04 02:27:10;;;;;;;1.63;0.63;;;;;;;3.75;100.00;102096.50;5179882;28;20042;-71
2023/02/04 02:29:41;;;;;;;5.72;1.23;;;;;;;3.74;100.00;102099.03;5177828;28;20477;-72
2023/02/04 02:32:14;;;;;;;2.90;0.80;;;;;;;3.60;100.00;102103.16;5181015;28;20464;-72
2023/02/04 02:34:45;;;;;;;2.05;0.65;;;;;;;3.58;100.00;102111.69;5180675;28;20018;-73
2023/02/04 02:37:15;;;;;;;1.92;0.65;;;;;;;3.55;100.00;102114.25;5177842;28;20188;-73
2023/02/04 02:39:46;;;;;;;2.97;0.90;;;;;;;3.56;100.00;102126.31;5180167;28;20026;-73
2023/02/04 02:42:18;;;;;;;1.85;0.70;;;;;;;3.52;100.00;102124.53;5180668;28;20495;-72
2023/02/04 02:44:49;;;;;;;3.13;0.70;;;;;;;3.56;100.00;102131.50;5177751;28;20130;-70
2023/02/04 02:47:21;;;;;;;1.67;1.00;;;;;;;3.49;100.00;102135.69;5178844;28;20096;-72
2023/02/04 02:49:52;;;;;;;2.10;0.77;;;;;;;3.48;100.00;102133.06;5162032;28;20239;-72
2023/02/04 02:52:23;;;;;;;2.20;0.80;;;;;;;3.45;100.00;102140.75;5178914;28;20036;-74
2023/02/04 02:54:53;;;;;;;2.88;0.55;;;;;;;3.39;100.00;102135.47;5175988;28;20216;-72
2023/02/04 02:57:24;;;;;;;2.88;0.80;;;;;;;3.35;100.00;102129.38;5179050;28;20032;-73
2023/02/04 02:59:54;;;;;;;2.75;0.70;;;;;;;3.35;100.00;102154.38;5178436;28;20022;-72
2023/02/04 03:02:24;;;;;;;2.13;0.90;;;;;;;3.28;100.00;102162.81;5179323;28;20117;-74
2023/02/04 03:04:59;;;;;;;1.98;0.70;;;;;;;3.22;100.00;102158.41;5179353;28;20022;-72
2023/02/04 03:07:30;;;;;;;2.33;0.80;;;;;;;3.17;100.00;102174.69;5179986;28;20076;-73
2023/02/04 03:10:02;;;;;;;2.50;1.10;;;;;;;3.18;100.00;102173.84;5178932;28;20491;-74
2023/02/04 03:12:32;;;;;;;3.50;0.73;;;;;;;3.05;100.00;102184.75;5179556;28;20025;-72
2023/02/04 03:15:04;;;;;;;1.98;0.80;;;;;;;3.08;100.00;102189.97;5177388;28;20021;-73
2023/02/04 03:17:35;;;;;;;2.95;1.08;;;;;;;3.07;100.00;102203.72;5179604;28;20042;-73
2023/02/04 03:20:06;;;;;;;2.45;0.90;;;;;;;3.13;100.00;102203.84;5177931;28;20022;-73
2023/02/04 03:22:37;;;;;;;3.95;0.82;;;;;;;3.10;100.00;102208.94;5179361;28;20478;-73
2023/02/04 03:25:07;;;;;;;3.70;1.00;;;;;;;3.14;100.00;102213.34;5179460;28;20034;-72
2023/02/04 03:27:38;;;;;;;3.33;1.00;;;;;;;3.09;100.00;102212.38;5175393;28;20755;-72
2023/02/04 03:30:08;;;;;;;4.28;0.80;;;;;;;3.04;100.00;102232.09;5179704;28;20041;-72
2023/02/04 03:32:40;;;;;;;2.92;0.82;;;;;;;2.99;100.00;102231.97;5177321;28;20240;-72
2023/02/04 03:35:10;;;;;;;4.10;1.10;;;;;;;3.02;100.00;102231.19;5178014;28;20108;-71
2023/02/04 03:37:41;;;;;;;3.97;1.00;;;;;;;2.93;100.00;102241.28;5177856;28;20124;-72
2023/02/04 03:40:12;;;;;;;3.53;0.85;;;;;;;2.85;100.00;102248.00;5179411;28;20052;-72
2023/02/04 03:42:42;;;;;;;3.08;0.75;;;;;;;2.80;100.00;102262.50;5179683;28;20032;-73
2023/02/04 03:45:13;;;;;;;3.60;1.00;;;;;;;2.84;100.00;102261.75;5177542;28;20495;-75
2023/02/04 03:47:43;;;;;;;3.42;1.20;;;;;;;2.93;100.00;102262.84;5178367;28;20056;-74
2023/02/04 03:50:14;;;;;;;3.13;1.00;;;;;;;2.91;100.00;102276.53;5179510;28;20100;-74
2023/02/04 03:52:44;;;;;;;2.33;0.60;;;;;;;2.77;100.00;102291.72;5177068;28;20407;-74
2023/02/04 03:55:14;;;;;;;2.92;0.95;;;;;;;2.78;100.00;102292.56;5176568;28;20491;-75
2023/02/04 03:57:45;;;;;;;3.20;0.95;;;;;;;2.70;100.00;102291.53;5175666;28;20483;-74
2023/02/04 04:00:15;;;;;;;4.25;0.90;;;;;;;2.49;100.00;102297.06;5177569;28;20033;-74
2023/02/04 04:02:45;;;;;;;4.10;1.10;;;;;;;2.36;100.00;102301.88;5176855;28;20484;-76
2023/02/04 04:05:16;;;;;;;2.80;1.10;;;;;;;2.12;100.00;102311.56;5178113;28;20025;-75
2023/02/04 04:07:46;;;;;;;2.33;0.88;;;;;;;2.01;100.00;102319.00;5178493;28;20152;-75
2023/02/04 04:10:16;;;;;;;2.92;0.90;;;;;;;2.00;100.00;102319.00;5175616;28;20032;-74
2023/02/04 04:12:47;;;;;;;2.17;0.98;;;;;;;1.86;100.00;102328.03;5179395;28;20100;-73
2023/02/04 04:15:17;;;;;;;2.85;0.80;;;;;;;1.78;100.00;102339.84;5179455;28;20101;-73
2023/02/04 04:17:47;;;;;;;3.15;1.10;;;;;;;1.78;100.00;102339.84;5178005;28;20033;-75
2023/02/04 04:20:18;;;;;;;2.75;0.98;;;;;;;1.68;100.00;102343.00;5177593;28;20030;-73
2023/02/04 04:22:48;;;;;;;2.33;0.93;;;;;;;1.91;100.00;102347.97;5179736;28;20097;-72
2023/02/04 04:25:18;;;;;;;1.58;1.00;;;;;;;2.02;100.00;102354.28;5178879;28;20029;-73
2023/02/04 04:27:49;;;;;;;3.88;1.08;;;;;;;1.69;100.00;102365.34;5179986;28;20030;-72
2023/02/04 04:30:19;;;;;;;2.72;1.00;;;;;;;1.65;100.00;102379.00;5175072;28;20030;-74
2023/02/04 04:32:49;;;;;;;3.13;1.00;;;;;;;1.60;100.00;102375.38;5177292;28;20065;-75
2023/02/04 04:35:19;;;;;;;1.65;1.08;;;;;;;1.54;100.00;102379.50;5179056;28;20033;-74
2023/02/04 04:37:50;;;;;;;2.45;1.13;;;;;;;1.55;100.00;102376.97;5176980;28;20026;-72
2023/02/04 04:40:20;;;;;;;1.75;1.00;;;;;;;1.55;100.00;102387.25;5168807;28;20320;-74
2023/02/04 04:42:50;;;;;;;4.00;1.27;;;;;;;1.64;100.00;102390.13;5178178;28;20029;-74
2023/02/04 04:45:21;;;;;;;6.97;1.42;;;;;;;1.67;100.00;102390.22;5178060;28;20514;-73
2023/02/04 04:47:51;;;;;;;2.47;1.27;;;;;;;1.57;100.00;102403.63;5176939;28;20073;-74
2023/02/04 04:50:21;;;;;;;3.35;1.20;;;;;;;1.52;100.00;102407.78;5178018;28;20030;-74
2023/02/04 04:52:52;;;;;;;5.90;1.33;;;;;;;1.38;100.00;102409.06;5178451;28;20017;-74
2023/02/04 04:55:22;;;;;;;1.90;1.10;;;;;;;1.37;100.00;102412.47;5176946;28;20030;-73
2023/02/04 04:57:52;;;;;;;4.00;1.10;;;;;;;1.37;100.00;102417.63;5177974;28;20029;-73
2023/02/04 05:00:23;;;;;;;5.25;1.30;;;;;;;1.42;100.00;102421.19;5178324;28;20025;-73
2023/02/04 05:02:53;;;;;;;1.92;1.08;;;;;;;1.55;100.00;102420.75;5178442;28;20484;-74
2023/02/04 05:05:23;;;;;;;2.92;1.20;;;;;;;1.50;100.00;102419.75;5174853;28;20030;-73
2023/02/04 05:07:54;;;;;;;3.25;1.20;;;;;;;1.43;100.00;102429.81;5177627;28;20448;-74
2023/02/04 05:10:24;;;;;;;5.50;1.40;;;;;;;1.46;100.00;102432.47;5181683;28;20148;-74
2023/02/04 05:12:54;;;;;;;1.88;1.20;;;;;;;1.55;100.00;102438.78;5181249;28;20516;-75
2023/02/04 05:15:25;;;;;;;3.92;1.30;;;;;;;1.62;100.00;102445.91;5181517;28;20040;-74
2023/02/04 05:17:55;;;;;;;3.10;1.20;;;;;;;1.65;100.00;102450.25;5181673;28;20025;-73
2023/02/04 05:20:26;;;;;;;1.85;1.15;;;;;;;1.69;100.00;102452.97;5181572;28;20053;-76
2023/02/04 05:22:59;;;;;;;4.18;1.90;;;;;;;1.92;100.00;102446.78;5180420;28;20018;-73
2023/02/04 05:25:30;;;;;;;2.47;1.63;;;;;;;1.96;100.00;102448.63;5177726;28;20050;-73
2023/02/04 05:28:00;;;;;;;3.45;1.30;;;;;;;1.87;100.00;102453.50;5181323;28;20080;-73
2023/02/04 05:30:30;;;;;;;6.00;1.52;;;;;;;1.70;100.00;102453.81;5179712;28;20026;-73
2023/02/04 05:33:00;;;;;;;3.35;1.38;;;;;;;1.79;100.00;102460.16;5181737;28;20488;-76
2023/02/04 05:35:31;;;;;;;5.32;1.50;;;;;;;1.74;100.00;102445.38;5181035;28;20114;-75
2023/02/04 05:38:01;;;;;;;2.05;1.20;;;;;;;1.55;100.00;102450.81;5173976;28;20479;-75
2023/02/04 05:40:31;;;;;;;3.10;1.20;;;;;;;1.56;100.00;102449.97;5180624;28;20036;-73
2023/02/04 05:43:03;;;;;;;2.30;1.20;;;;;;;1.59;100.00;102452.66;5180291;28;20053;-74
2023/02/04 05:45:33;;;;;;;3.08;1.25;;;;;;;1.54;100.00;102457.66;5178559;28;20025;-74
2023/02/04 05:48:04;;;;;;;2.78;1.70;;;;;;;1.73;100.00;102464.25;5177676;28;20028;-74
2023/02/04 05:50:34;;;;;;;3.95;2.17;;;;;;;1.71;100.00;102471.06;5181058;28;20033;-75
2023/02/04 05:53:05;;;;;;;3.65;2.13;;;;;;;1.97;100.00;102471.88;5180517;28;20208;-74
2023/02/04 05:55:35;;;;;;;5.28;2.65;;;;;;;2.14;100.00;102480.97;5180660;28;20395;-75
2023/02/04 05:58:06;;;;;;;3.55;1.92;;;;;;;2.15;100.00;102494.75;5177865;28;20022;-73
2023/02/04 06:00:36;;;;;;;4.07;1.85;;;;;;;2.19;100.00;102479.38;5180015;28;20531;-73
2023/02/04 06:03:06;;;;;;;63.70;24.05;;;;;;;2.25;100.00;102479.56;5180860;28;20038;-74
2023/02/04 06:05:37;;;;;;;132.38;45.75;;;;;;;2.48;100.00;102498.28;5178941;28;20573;-75
2023/02/04 06:08:07;;;;;;;84.82;32.90;;;;;;;2.56;100.00;102507.09;5180694;28;20033;-73
2023/02/04 06:10:37;;;;;;;68.95;33.85;;;;;;;2.56;100.00;102507.09;5180635;28;20088;-74
2023/02/04 06:13:08;;;;;;;72.70;33.63;;;;;;;2.63;100.00;102520.22;5179131;28;20022;-75
2023/02/04 06:15:38;;;;;;;26.17;13.82;;;;;;;2.58;100.00;102521.81;5178029;28;20057;-74
2023/02/04 06:18:08;;;;;;;29.58;15.52;;;;;;;2.75;100.00;102528.28;5180082;28;20030;-74
2023/02/04 06:20:39;;;;;;;33.45;17.40;;;;;;;2.79;100.00;102530.13;5180357;28;20395;-73
2023/02/04 06:23:09;;;;;;;45.63;22.63;;;;;;;2.88;100.00;102542.41;5179288;28;20026;-74
2023/02/04 06:25:39;;;;;;;31.95;16.08;;;;;;;2.80;100.00;102549.03;5180166;28;20057;-73
2023/02/04 06:28:10;;;;;;;49.45;26.80;;;;;;;2.77;100.00;102549.88;5180613;28;20053;-74
2023/02/04 06:30:40;;;;;;;26.17;12.38;;;;;;;2.88;100.00;102553.59;5178494;28;20033;-75
2023/02/04 06:33:10;;;;;;;5.85;2.67;;;;;;;2.91;100.00;102550.22;5180892;28;20026;-74
2023/02/04 06:35:40;;;;;;;8.60;3.40;;;;;;;2.85;100.00;102542.31;5178882;28;20022;-75
2023/02/04 06:38:11;;;;;;;8.15;1.98;;;;;;;2.86;100.00;102555.25;5178241;28;20649;-75
2023/02/04 06:40:41;;;;;;;12.82;5.38;;;;;;;2.79;100.00;102562.78;5176050;28;20033;-74
2023/02/04 06:43:12;;;;;;;10.70;3.38;;;;;;;2.56;100.00;102559.59;5177558;28;20080;-72
2023/02/04 06:45:42;;;;;;;3.38;1.70;;;;;;;2.30;100.00;102570.00;5178855;28;20029;-75
2023/02/04 06:48:12;;;;;;;3.40;1.58;;;;;;;2.11;100.00;102570.25;5179373;28;20447;-73
2023/02/04 06:50:43;;;;;;;4.15;1.90;;;;;;;2.10;100.00;102571.06;5180148;28;20360;-76
2023/02/04 06:53:13;;;;;;;5.95;2.28;;;;;;;1.98;100.00;102576.75;5179003;28;20038;-74
2023/02/04 06:55:44;;;;;;;4.63;2.20;;;;;;;1.96;100.00;102580.13;5179584;28;20026;-74
2023/02/04 06:58:14;;;;;;;5.30;1.65;;;;;;;2.08;100.00;102586.53;5180644;28;20520;-74
2023/02/04 07:00:44;;;;;;;3.42;1.60;;;;;;;1.88;100.00;102591.88;5178879;28;20087;-75
2023/02/04 07:03:15;;;;;;;3.83;1.60;;;;;;;1.87;100.00;102597.84;5177051;28;20052;-74
2023/02/04 07:05:45;;;;;;;4.10;1.52;;;;;;;1.81;100.00;102606.28;5179828;28;20235;-73
2023/02/04 07:08:15;;;;;;;2.67;1.58;;;;;;;1.63;100.00;102606.50;5179367;28;20041;-74
2023/02/04 07:10:46;;;;;;;3.50;1.60;;;;;;;1.64;100.00;102604.00;5179144;28;20037;-75
2023/02/04 07:13:16;;;;;;;3.15;1.83;;;;;;;1.74;100.00;102613.75;5178807;28;20031;-76
2023/02/04 07:15:46;;;;;;;4.10;2.70;;;;;;;1.97;100.00;102615.38;5178867;28;20029;-74
2023/02/04 07:18:18;;;;;;;6.18;3.40;;;;;;;2.00;100.00;102616.34;5176867;28;20056;-75
2023/02/04 07:20:48;;;;;;;7.32;3.63;;;;;;;1.94;100.00;102621.31;5179227;28;20036;-74
2023/02/04 07:23:19;;;;;;;9.10;3.35;;;;;;;1.81;100.00;102618.28;5178611;28;20033;-75
2023/02/04 07:25:52;;;;;;;6.45;3.05;;;;;;;1.87;100.00;102618.47;5178997;28;20057;-74
2023/02/04 07:28:22;;;;;;;5.38;2.63;;;;;;;2.22;100.00;102623.03;5176050;28;20025;-74
2023/02/04 07:30:52;;;;;;;5.93;2.20;;;;;;;2.23;100.00;102636.00;5180586;28;20495;-74
2023/02/04 07:33:23;;;;;;;6.15;2.20;;;;;;;2.07;100.00;102633.75;5181256;28;20053;-75
2023/02/04 07:35:53;;;;;;;5.38;2.08;;;;;;;1.96;100.00;102639.41;5178028;28;20032;-74
2023/02/04 07:38:23;;;;;;;4.30;1.92;;;;;;;1.81;100.00;102649.22;5175671;28;20033;-74
2023/02/04 07:40:54;;;;;;;5.72;2.00;;;;;;;1.92;100.00;102648.75;5178774;28;20036;-75
2023/02/04 07:43:24;;;;;;;6.05;1.95;;;;;;;2.03;100.00;102656.81;5177227;28;20048;-76
2023/02/04 07:45:54;;;;;;;3.45;1.70;;;;;;;2.09;100.00;102668.22;5179349;28;20032;-73
2023/02/04 07:48:25;;;;;;;7.65;4.65;;;;;;;2.17;100.00;102671.88;5176884;28;20105;-76
2023/02/04 07:50:55;;;;;;;10.10;5.53;;;;;;;2.44;100.00;102669.28;5177917;28;20045;-74
2023/02/04 07:53:25;;;;;;;5.05;2.10;;;;;;;2.70;100.00;102676.97;5179422;28;20021;-74
2023/02/04 07:55:55;;;;;;;4.25;1.80;;;;;;;3.45;100.00;102667.94;5180518;28;20083;-74
2023/02/04 07:58:26;;;;;;;4.50;1.60;;;;;;;3.95;100.00;102673.56;5175244;28;20136;-74
2023/02/04 08:00:56;;;;;;;4.80;1.75;;;;;;;4.30;100.00;102673.56;5211560;23;20196;-76
2023/02/04 08:03:26;;;;;;;4.85;1.80;;;;;;;5.30;100.00;102672.28;5199071;28;20025;-74
2023/02/04 08:05:57;;;;;;;4.38;1.30;;;;;;;6.31;95.87;102677.56;5197479;28;20559;-77
2023/02/04 08:08:27;;;;;;;3.70;1.13;;;;;;;7.64;86.79;102669.75;5199023;28;20124;-76
2023/02/04 08:10:57;;;;;;;4.22;1.50;;;;;;;8.99;81.00;102669.88;5200524;28;20048;-77
2023/02/04 08:13:27;;;;;;;3.38;1.27;;;;;;;9.13;77.93;102679.50;5200485;28;20037;-78
2023/02/04 08:15:58;;;;;;;3.40;1.50;;;;;;;8.52;79.26;102679.19;5201113;28;20033;-78
2023/02/04 08:18:29;;;;;;;3.92;1.73;;;;;;;8.89;77.08;102691.56;5201562;28;20025;-77
2023/02/04 08:21:00;;;;;;;3.17;1.20;;;;;;;9.46;75.73;102693.53;5199673;28;20029;-75
2023/02/04 08:23:31;;;;;;;3.25;1.23;;;;;;;9.63;75.92;102697.06;5196765;28;20026;-77
2023/02/04 08:26:02;;;;;;;4.75;1.33;;;;;;;10.01;75.30;102689.28;5196034;28;20084;-77
2023/02/04 08:28:32;;;;;;;2.85;1.30;;;;;;;8.95;74.99;102696.81;5197225;28;20539;-77
2023/02/04 08:31:10;;;;;;;3.45;1.23;;;;;;;8.13;78.41;102692.75;5200481;28;20083;-77
2023/02/04 08:33:40;;;;;;;4.10;1.40;;;;;;;8.70;76.96;102690.56;5198385;28;20027;-76
2023/02/04 08:36:10;;;;;;;3.28;1.20;;;;;;;9.15;77.22;102685.59;5199972;28;20120;-77
2023/02/04 08:38:43;;;;;;;2.50;0.90;;;;;;;10.02;72.75;102693.66;5200261;28;20033;-76
2023/02/04 08:41:13;;;;;;;3.60;1.15;;;;;;;10.70;71.04;102684.88;5199682;28;20021;-77
2023/02/04 08:43:43;;;;;;;3.60;1.10;;;;;;;10.05;71.20;102696.28;5202734;28;20021;-76
2023/02/04 08:46:14;;;;;;;4.70;1.23;;;;;;;10.42;71.67;102698.00;5203551;28;20060;-77
2023/02/04 08:48:44;;;;;;;3.22;1.08;;;;;;;10.41;70.82;102706.72;5203737;28;20108;-76
2023/02/04 08:51:15;;;;;;;3.03;0.85;;;;;;;9.49;74.56;102708.34;5202849;28;20044;-77
2023/02/04 08:53:46;;;;;;;2.63;1.00;;;;;;;7.68;79.24;102720.09;5200349;28;20047;-77
2023/02/04 08:56:19;;;;;;;7.30;1.20;;;;;;;7.53;79.32;102723.38;5204812;28;20029;-76
2023/02/04 08:58:51;;;;;;;2.83;1.20;;;;;;;7.22;81.06;102728.22;5203904;28;20040;-75
2023/02/04 09:01:21;;;;;;;4.53;1.15;;;;;;;7.91;80.94;102724.66;5203068;28;20028;-77
2023/02/04 09:03:52;;;;;;;2.88;1.00;;;;;;;7.23;80.84;102727.38;5203879;28;20522;-76
2023/02/04 09:06:22;;;;;;;2.60;1.10;;;;;;;6.73;83.71;102737.97;5204128;28;20163;-77
2023/02/04 09:08:52;;;;;;;2.10;1.20;;;;;;;5.61;87.90;102737.72;5203585;28;20036;-77
2023/02/04 09:11:23;;;;;;;5.65;1.17;;;;;;;5.17;89.54;102742.00;5202924;28;20032;-76
2023/02/04 09:13:55;;;;;;;4.35;1.35;;;;;;;4.79;91.92;102742.91;5204035;28;20030;-77
2023/02/04 09:16:25;;;;;;;5.78;1.20;;;;;;;4.92;91.84;102744.91;5202832;28;20033;-75
2023/02/04 09:18:57;;;;;;;5.05;1.35;;;;;;;5.16;91.39;102745.44;5204459;28;20052;-77
2023/02/04 09:21:28;;;;;;;4.93;1.20;;;;;;;4.74;92.48;102749.66;5204050;28;20021;-76
2023/02/04 09:23:58;;;;;;;5.90;1.27;;;;;;;4.77;91.12;102753.22;5204820;28;20343;-76
2023/02/04 09:26:29;;;;;;;5.80;1.30;;;;;;;4.94;90.21;102749.28;5204741;28;20030;-76
2023/02/04 09:28:59;;;;;;;2.38;0.90;;;;;;;4.75;89.77;102756.59;5202768;28;20047;-76
2023/02/04 09:31:29;;;;;;;3.10;0.90;;;;;;;4.77;91.08;102757.53;5203202;28;20155;-76
2023/02/04 09:34:00;;;;;;;5.13;1.17;;;;;;;4.85;90.70;102763.75;5203442;28;20119;-76
2023/02/04 09:36:33;;;;;;;3.92;0.95;;;;;;;5.02;92.61;102765.00;5203024;28;20018;-76
2023/02/04 09:39:08;;;;;;;3.28;1.05;;;;;;;5.36;92.16;102765.72;5201604;28;20029;-76
2023/02/04 09:41:40;;;;;;;6.40;1.00;;;;;;;4.89;90.70;102769.03;5202748;28;20021;-76
2023/02/04 09:44:17;;;;;;;4.70;0.90;;;;;;;5.03;90.93;102772.81;5202094;28;20487;-76
2023/02/04 09:46:53;;;;;;;4.50;1.00;;;;;;;4.96;91.08;102773.50;5199988;28;20037;-76
2023/02/04 09:49:24;;;;;;;;;;;;;;;4.98;90.82;102781.31;5202911;28;20355;-76
2023/02/04 09:51:55;;;;;;;4.35;1.00;;;;;;;4.95;91.13;102784.72;5204085;28;19974;-76
2023/02/04 09:54:25;;;;;;;4.22;0.80;;;;;;;4.83;91.23;102786.16;5201565;28;20021;-77
2023/02/04 09:56:56;;;;;;;5.32;0.88;;;;;;;4.67;91.51;102800.44;5202618;28;20056;-76
2023/02/04 09:59:28;;;;;;;2.72;0.80;;;;;;;4.41;91.52;102804.13;5199315;28;20140;-77
2023/02/04 10:02:00;;;;;;;2.88;0.80;;;;;;;4.46;90.90;102802.53;5199743;28;20207;-76
2023/02/04 10:04:31;;;;;;;3.63;0.85;;;;;;;4.72;92.24;102805.75;5199886;28;20033;-77
2023/02/04 10:07:02;;;;;;;3.80;0.90;;;;;;;4.79;92.46;102800.75;5201613;28;20036;-76
2023/02/04 10:09:33;;;;;;;2.28;0.95;;;;;;;4.83;93.58;102805.16;5199113;28;20403;-77
2023/02/04 10:12:05;;;;;;;2.45;0.70;;;;;;;4.78;90.65;102808.50;5198174;28;20041;-76
2023/02/04 10:14:35;;;;;;;2.53;0.68;;;;;;;4.74;90.31;102802.34;5197056;28;20557;-76
2023/02/04 10:17:08;;;;;;;3.05;0.70;;;;;;;4.43;88.73;102804.19;5193832;28;20035;-76
2023/02/04 10:19:39;;;;;;;2.35;0.70;;;;;;;4.35;89.36;102801.41;5197803;28;20052;-77
2023/02/04 10:22:16;;;;;;;3.00;0.82;;;;;;;4.71;88.91;102799.69;5198766;28;20309;-76
2023/02/04 10:24:47;;;;;;;2.83;0.98;;;;;;;4.65;88.71;102807.31;5196785;28;20295;-76
2023/02/04 10:27:17;;;;;;;3.08;0.70;;;;;;;4.76;88.70;102811.03;5197447;28;20033;-76
2023/02/04 10:29:56;;;;;;;2.58;0.80;;;;;;;4.75;87.27;102808.41;5200174;28;20487;-76
2023/02/04 10:32:31;;;;;;;4.55;0.68;;;;;;;4.60;87.70;102803.72;5202037;28;20558;-75
2023/02/04 10:35:02;;;;;;;;;;;;;;;4.89;89.46;102802.72;5202001;28;20061;-76
2023/02/04 10:37:32;;;;;;;2.40;0.68;;;;;;;4.99;88.90;102802.06;5200474;28;19978;-76
2023/02/04 10:40:02;;;;;;;3.17;1.08;;;;;;;4.82;89.34;102813.75;5200544;28;20029;-76
2023/02/04 10:42:33;;;;;;;2.45;0.60;;;;;;;4.71;88.75;102811.75;5197311;28;20125;-75
2023/02/04 10:45:03;;;;;;;3.28;0.60;;;;;;;4.85;87.81;102816.44;5200190;28;20072;-75
2023/02/04 10:47:34;;;;;;;1.95;0.65;;;;;;;4.82;86.13;102816.34;5198141;28;20035;-76
2023/02/04 10:50:17;;;;;;;5.05;1.08;;;;;;;4.91;88.73;102815.69;5196529;28;20033;-76
2023/02/04 10:54:28;;;;;;;3.05;0.95;;;;;;;4.82;86.90;102826.72;5199738;28;20021;-76
2023/02/04 10:55:46;;;;;;;4.07;0.90;;;;;;;4.82;89.68;102831.03;5198023;28;20071;-76
2023/02/04 10:58:27;;;;;;;4.25;1.30;;;;;;;4.74;89.11;102832.53;5199945;28;20045;-77
2023/02/04 11:00:57;;;;;;;4.45;1.20;;;;;;;4.77;89.13;102822.28;5198743;28;20033;-76
2023/02/04 11:03:29;;;;;;;3.83;0.90;;;;;;;4.79;87.66;102831.81;5198525;28;20409;-77
2023/02/04 11:06:00;;;;;;;4.05;0.95;;;;;;;4.75;89.29;102827.41;5197709;28;20041;-75
2023/02/04 11:08:36;;;;;;;3.95;1.20;;;;;;;4.82;88.24;102826.72;5192777;28;20534;-76
2023/02/04 11:11:08;;;;;;;;;;;;;;;4.64;89.24;102826.28;5196846;28;20040;-76
2023/02/04 11:13:57;;;;;;;2.70;0.80;;;;;;;4.54;89.94;102832.09;5199497;28;19968;-77
2023/02/04 11:16:31;;;;;;;5.95;1.00;;;;;;;4.40;88.41;102835.13;5200103;28;20489;-74
2023/02/04 11:19:03;;;;;;;3.83;0.70;;;;;;;4.70;88.03;102831.63;5190899;28;20417;-76
2023/02/04 11:21:33;;;;;;;3.60;1.05;;;;;;;4.74;86.88;102829.97;5197563;28;20091;-76
2023/02/04 11:24:12;;;;;;;4.37;0.93;;;;;;;4.81;85.29;102831.88;5198150;28;20029;-77
2023/02/04 11:26:44;;;;;;;5.05;0.88;;;;;;;5.11;85.53;102823.09;5199888;28;20391;-78
2023/02/04 11:29:14;;;;;;;1.73;0.60;;;;;;;5.31;83.95;102829.56;5197151;28;20068;-77
2023/02/04 11:31:47;;;;;;;5.15;0.90;;;;;;;5.43;82.54;102841.06;5198286;28;20443;-77
2023/02/04 11:34:18;;;;;;;1.70;0.73;;;;;;;5.05;84.44;102841.09;5198998;28;20029;-77
2023/02/04 11:37:00;;;;;;;3.70;0.85;;;;;;;4.79;83.44;102847.38;5196553;28;20107;-76
2023/02/04 11:39:35;;;;;;;5.88;0.60;;;;;;;4.72;83.52;102849.75;5193118;28;20026;-77
2023/02/04 11:42:17;;;;;;;3.53;0.70;;;;;;;4.85;83.91;102862.19;5198177;28;20037;-76
2023/02/04 11:44:53;;;;;;;3.25;0.80;;;;;;;4.89;83.80;102851.94;5196565;28;20166;-75
2023/02/04 11:47:25;;;;;;;3.30;0.90;;;;;;;5.04;84.39;102854.00;5198471;28;20059;-77